createdAt,value
2023-03-06T00:03:59.763Z,83.68
2023-03-06T00:08:59.241Z,84.25
2023-03-06T00:13:59.928Z,84.40
2023-03-06T00:18:58.814Z,84.38
2023-03-06T00:23:58.158Z,84.42
2023-03-06T00:28:57.421Z,84.14
2023-03-06T00:33:56.748Z,83.38
2023-03-06T00:38:56.331Z,82.63
2023-03-06T00:43:56.890Z,82.84
2023-03-06T00:48:55.738Z,83.03
2023-03-06T00:53:55.252Z,83.22
2023-03-06T00:58:55.466Z,83.60
2023-03-06T01:03:57.703Z,83.62
2023-03-06T01:08:56.599Z,83.37
2023-03-06T01:13:56.944Z,83.43
2023-03-06T01:18:55.801Z,83.67
2023-03-06T01:23:55.986Z,83.98
2023-03-06T01:28:57.487Z,84.00
2023-03-06T01:33:56.762Z,84.37
2023-03-06T01:38:55.961Z,84.03
2023-03-06T01:43:55.435Z,84.05
2023-03-06T01:48:59.963Z,84.75
2023-03-06T01:54:01.796Z,84.75
2023-03-06T01:59:02.307Z,84.45
2023-03-06T02:04:02.904Z,84.79
2023-03-06T02:09:02.590Z,85.77
2023-03-06T02:14:01.737Z,85.54
2023-03-06T02:19:03.337Z,85.12
2023-03-06T02:24:29.033Z,84.88
2023-03-06T02:29:31.715Z,84.85
2023-03-06T02:34:57.571Z,84.92
2023-03-06T02:40:09.388Z,85.58
2023-03-06T02:45:14.325Z,84.87
2023-03-06T02:50:15.167Z,84.83
2023-03-06T02:55:15.948Z,84.64
2023-03-06T03:00:18.383Z,84.59
2023-03-06T03:05:17.853Z,84.48
2023-03-06T03:10:20.344Z,84.35
2023-03-06T03:15:19.764Z,84.45
2023-03-06T03:20:24.116Z,84.47
2023-03-06T03:25:26.024Z,84.66
2023-03-06T03:30:27.214Z,84.58
2023-03-06T03:35:27.114Z,84.62
2023-03-06T03:40:29.707Z,84.57
2023-03-06T03:45:30.285Z,84.35
2023-03-06T03:50:30.326Z,84.29
2023-03-06T03:55:31.178Z,84.27
2023-03-06T04:00:31.229Z,84.23
2023-03-06T04:05:37.444Z,84.09
2023-03-06T04:10:39.978Z,84.19
2023-03-06T04:15:40.426Z,84.12
2023-03-06T04:20:41.409Z,84.16
2023-03-06T04:25:42.082Z,84.21
2023-03-06T04:30:44.099Z,84.21
2023-03-06T04:35:44.319Z,84.12
2023-03-06T04:40:50.333Z,84.28
2023-03-06T04:45:49.395Z,84.51
2023-03-06T04:50:48.868Z,84.62
2023-03-06T04:55:47.928Z,84.73
2023-03-06T05:00:47.693Z,84.70
2023-03-06T05:05:46.356Z,84.64
2023-03-06T05:10:46.074Z,85.03
2023-03-06T05:15:46.662Z,85.07
2023-03-06T05:20:45.724Z,85.18
2023-03-06T05:25:45.653Z,85.14
2023-03-06T05:30:45.798Z,84.92
2023-03-06T05:35:50.042Z,84.83
2023-03-06T05:40:50.153Z,84.90
2023-03-06T05:45:50.391Z,85.08
2023-03-06T05:50:58.971Z,85.35
2023-03-06T05:56:03.994Z,85.27
2023-03-06T06:01:09.647Z,85.68
2023-03-06T06:06:12.789Z,85.47
2023-03-06T06:11:15.051Z,85.58
2023-03-06T06:16:17.157Z,85.64
2023-03-06T06:21:17.356Z,85.40
2023-03-06T06:26:16.806Z,85.73
2023-03-06T06:31:16.859Z,85.69
2023-03-06T06:36:24.177Z,85.79
2023-03-06T06:52:06.279Z,85.74
2023-03-06T06:57:05.920Z,85.68
2023-03-06T07:02:06.223Z,85.38
2023-03-06T07:07:04.791Z,85.33
2023-03-06T07:12:04.010Z,85.00
2023-03-06T07:17:03.260Z,85.01
2023-03-06T07:22:02.851Z,85.15
2023-03-06T07:27:01.778Z,84.76
2023-03-06T07:32:01.384Z,84.70
2023-03-06T07:37:00.308Z,84.55
2023-03-06T07:42:00.139Z,83.91
2023-03-06T07:46:59.972Z,82.23
2023-03-06T07:51:59.400Z,82.25
2023-03-06T07:56:58.015Z,81.07
2023-03-06T08:01:59.232Z,80.45
2023-03-06T08:07:00.055Z,77.77
2023-03-06T08:12:00.145Z,76.11
2023-03-06T08:17:00.896Z,75.97
2023-03-06T08:21:59.842Z,74.05
2023-03-06T08:26:59.001Z,73.97
2023-03-06T08:31:58.693Z,72.78
2023-03-06T08:36:57.718Z,74.14
2023-03-06T08:41:57.144Z,74.55
2023-03-06T08:46:56.569Z,72.77
2023-03-06T08:51:56.285Z,72.50
2023-03-06T08:56:55.555Z,72.85
2023-03-06T09:01:55.360Z,72.69
2023-03-06T09:06:55.658Z,72.41
2023-03-06T09:11:56.522Z,72.00
2023-03-06T09:16:56.089Z,73.33
2023-03-06T09:21:55.429Z,73.22
2023-03-06T09:26:56.158Z,73.17
2023-03-06T09:31:55.367Z,72.22
2023-03-06T09:36:57.062Z,72.58
2023-03-06T09:41:58.990Z,72.45
2023-03-06T09:47:16.935Z,70.31
2023-03-06T09:52:36.222Z,68.00
2023-03-06T09:57:39.565Z,67.76
2023-03-06T10:02:45.494Z,68.34
2023-03-06T10:07:54.414Z,67.95
2023-03-06T10:13:04.617Z,68.30
2023-03-06T10:18:07.427Z,68.11
2023-03-06T10:23:26.557Z,67.38
2023-03-06T10:28:36.975Z,66.90
2023-03-06T10:33:54.770Z,64.52
2023-03-06T10:38:54.605Z,64.54
2023-03-06T10:49:31.566Z,65.40
2023-03-06T10:54:32.595Z,66.43
2023-03-06T10:59:33.204Z,65.51
2023-03-06T11:04:35.988Z,65.72
2023-03-06T11:09:36.360Z,66.44
2023-03-06T11:14:36.311Z,67.60
2023-03-06T11:19:35.977Z,67.81
2023-03-06T11:24:43.846Z,68.23
2023-03-06T11:29:48.030Z,68.81
2023-03-06T11:34:53.766Z,69.41
2023-03-06T11:40:05.423Z,69.70
2023-03-06T11:45:26.039Z,70.11
2023-03-06T11:50:36.003Z,69.84
2023-03-06T11:56:23.008Z,69.69
2023-03-06T12:01:33.866Z,70.07
2023-03-06T12:06:49.777Z,70.56
2023-03-06T12:11:59.677Z,71.13
2023-03-06T12:17:32.979Z,71.43
2023-03-06T12:22:57.839Z,71.47
2023-03-06T12:28:24.691Z,71.70
2023-03-06T12:33:37.886Z,72.02
2023-03-06T12:39:17.780Z,72.14
2023-03-06T12:45:28.619Z,72.42
2023-03-06T12:50:31.519Z,72.46
2023-03-06T12:55:33.249Z,72.74
2023-03-06T13:01:07.586Z,72.99
2023-03-06T13:06:34.139Z,73.05
2023-03-06T13:12:00.190Z,73.30
2023-03-06T13:17:39.268Z,73.68
2023-03-06T13:22:38.655Z,74.07
2023-03-06T13:28:06.067Z,74.56
2023-03-06T13:33:26.346Z,74.47
2023-03-06T13:38:59.749Z,74.68
2023-03-06T13:44:02.206Z,74.57
2023-03-06T13:49:25.239Z,74.83
2023-03-06T13:54:48.243Z,75.08
2023-03-06T14:00:23.249Z,75.45
2023-03-06T14:05:23.135Z,75.57
2023-03-06T14:10:32.538Z,76.04
2023-03-06T14:15:43.430Z,76.10
2023-03-06T14:20:50.496Z,76.39
2023-03-06T14:25:56.223Z,76.83
2023-03-06T14:30:58.265Z,76.85
2023-03-06T14:36:09.714Z,77.23
2023-03-06T14:41:13.024Z,77.74
2023-03-06T14:46:24.659Z,77.68
2023-03-06T14:51:26.991Z,77.74
2023-03-06T14:56:29.288Z,78.44
2023-03-06T15:01:36.289Z,78.77
2023-03-06T15:06:43.595Z,78.64
2023-03-06T15:17:32.585Z,78.42
2023-03-06T15:22:37.982Z,78.40
2023-03-06T15:27:37.722Z,78.58
2023-03-06T15:32:42.567Z,78.77
2023-03-06T15:37:42.013Z,78.69
2023-03-06T15:42:43.628Z,78.74
2023-03-06T15:47:45.142Z,78.58
2023-03-06T15:52:44.993Z,78.75
2023-03-06T15:57:52.245Z,78.82
2023-03-06T16:02:54.102Z,79.07
2023-03-06T16:07:53.362Z,79.11
2023-03-06T16:12:57.039Z,79.10
2023-03-06T16:17:56.324Z,79.25
2023-03-06T16:22:56.093Z,78.89
2023-03-06T16:27:59.595Z,79.49
2023-03-06T16:32:59.223Z,79.82
2023-03-06T16:37:58.835Z,80.24
2023-03-06T16:42:59.133Z,80.65
2023-03-06T16:47:59.433Z,81.35
2023-03-06T16:53:01.033Z,80.84
2023-03-06T16:58:00.583Z,81.73
2023-03-06T17:03:00.869Z,81.52
2023-03-06T17:08:01.157Z,82.17
2023-03-06T17:13:03.321Z,82.91
2023-03-06T17:18:03.881Z,83.29
2023-03-06T17:23:04.889Z,83.67
2023-03-06T17:28:05.069Z,83.55
2023-03-06T17:33:07.990Z,82.81
2023-03-06T17:38:07.276Z,83.43
2023-03-06T17:43:06.119Z,83.18
2023-03-06T17:48:05.608Z,83.58
2023-03-06T17:53:06.036Z,83.97
2023-03-06T17:58:05.253Z,83.38
2023-03-06T18:03:05.106Z,83.55
2023-03-06T18:08:05.055Z,84.72
2023-03-06T18:13:03.664Z,84.32
2023-03-06T18:18:02.805Z,84.22
2023-03-06T18:23:03.841Z,83.94
2023-03-06T18:28:03.219Z,83.56
2023-03-06T18:33:02.546Z,84.33
2023-03-06T18:38:02.677Z,84.87
2023-03-06T18:43:02.036Z,84.24
2023-03-06T18:48:00.680Z,84.70
2023-03-06T18:52:59.481Z,84.09
2023-03-06T18:58:00.305Z,84.87
2023-03-06T19:02:59.714Z,85.38
2023-03-06T19:07:59.525Z,85.25
2023-03-06T19:12:59.057Z,84.66
2023-03-06T19:17:58.754Z,84.05
2023-03-06T19:22:58.535Z,84.54
2023-03-06T19:27:58.308Z,84.94
2023-03-06T19:32:58.437Z,84.56
2023-03-06T19:37:57.873Z,85.12
2023-03-06T19:43:00.908Z,85.13
2023-03-06T19:48:01.878Z,85.29
2023-03-06T19:53:02.646Z,85.74
2023-03-06T19:58:02.768Z,85.21
2023-03-06T20:03:02.882Z,85.91
2023-03-06T20:08:02.619Z,86.07
2023-03-06T20:13:02.376Z,85.95
2023-03-06T20:18:04.256Z,86.26
2023-03-06T20:23:04.812Z,85.93
2023-03-06T20:28:04.476Z,86.17
2023-03-06T20:33:04.011Z,85.63
2023-03-06T20:38:03.202Z,85.89
2023-03-06T20:43:02.247Z,86.19
2023-03-06T20:48:01.348Z,85.79
2023-03-06T20:53:02.366Z,85.92
2023-03-06T20:58:02.011Z,85.82
2023-03-06T21:03:01.369Z,85.76
2023-03-06T21:08:00.997Z,85.50
2023-03-06T21:13:00.526Z,85.50
2023-03-06T21:17:59.765Z,85.81
2023-03-06T21:23:02.073Z,86.25
2023-03-06T21:28:01.179Z,86.36
2023-03-06T21:33:00.779Z,86.09
2023-03-06T21:37:59.929Z,86.42
2023-03-06T21:42:59.550Z,86.41
2023-03-06T21:47:59.299Z,86.61
2023-03-06T21:53:00.878Z,86.46
2023-03-06T21:58:00.358Z,86.76
2023-03-06T22:02:59.919Z,87.12
2023-03-06T22:07:59.261Z,86.88
2023-03-06T22:12:58.765Z,86.96
2023-03-06T22:17:58.020Z,86.67
2023-03-06T22:22:56.890Z,86.51
2023-03-06T22:27:55.923Z,85.94
2023-03-06T22:32:57.059Z,85.61
2023-03-06T22:37:56.500Z,85.39
2023-03-06T22:42:56.008Z,85.33
2023-03-06T22:48:02.384Z,85.20
2023-03-06T22:53:08.625Z,85.28
2023-03-06T22:58:07.884Z,85.51
2023-03-06T23:03:07.463Z,85.25
2023-03-06T23:08:07.097Z,85.31
2023-03-06T23:13:05.608Z,85.52
2023-03-06T23:18:24.049Z,85.11
2023-03-06T23:23:44.316Z,85.05
2023-03-06T23:28:44.530Z,85.15
2023-03-06T23:33:44.266Z,85.11
2023-03-06T23:38:44.312Z,84.84
2023-03-06T23:43:44.073Z,84.78
2023-03-06T23:48:46.153Z,84.88
2023-03-06T23:53:45.306Z,84.76
2023-03-06T23:58:45.672Z,84.95
